Hardaway, Alabama
Current Conditions -  °F | °C
As of 11:53 AM on Sunday 25 Jan 2015 (Local Time) from KTOI Reporting Station
Clear Clear  
Wind Chill: 16°   Ceiling: Unl
Heat Index: 16°   Visibility: 10mi
Dew Point:   Wind: 13mph
Humidity: 39%   Direction: 230°SW
Pressure: 29.92"   Gusts: 24mph
Location:  32.29°N, 85.85°W
Report Text: KTOI 251753Z AUTO 23011G21KT 10SM CLR 16/02 A2992 RMK AO2 PRESFR SLP133 T01560017 10156 21017 58028
Loading
Personal Weather Stations






























Interactive Weather Map New forecast layout! Learn more

10-Day Weather Forecast

Advertisements
Track Severe Weather on mobile